Terminal Aerodrome Forecast
Issued by NWS

Home | Current Version | Previous Version | Text Only | Print | Product List | Glossary On
Versions: 1 2 3 4 5 6 7 8 9 10 11 12 13 14 15
000
FTUS45 KGGW 311700
TAFSDY
TAF
KSDY 311733Z 3118/0118 04020G27KT 4SM -SN BLSN OVC012
     FM311900 05023G30KT 3/4SM -SN BLSN OVC014
     FM010600 04007KT P6SM VCSH OVC019
     FM011200 00000KT P6SM BKN023
      AMD LTD TO CLD VIS AND WIND=

USA.gov is the U.S. government's official web portal to all federal, state and local government web resources and services.